sensor_id;sensor_type;location;lat;lon;timestamp;P1;durP1;ratioP1;P2;durP2;ratioP2
19812;SDS011;10066;48.108;11.448;2024-03-25T04:33:36;3.00;;;1.60;;
19812;SDS011;10066;48.108;11.448;2024-03-25T04:36:03;2.37;;;1.50;;
19812;SDS011;10066;48.108;11.448;2024-03-25T04:38:30;3.03;;;1.53;;
19812;SDS011;10066;48.108;11.448;2024-03-25T04:40:56;4.00;;;1.60;;
19812;SDS011;10066;48.108;11.448;2024-03-25T04:43:24;3.30;;;1.50;;
19812;SDS011;10066;48.108;11.448;2024-03-25T04:45:50;2.80;;;1.70;;
19812;SDS011;10066;48.108;11.448;2024-03-25T04:48:16;3.60;;;1.90;;
19812;SDS011;10066;48.108;11.448;2024-03-25T04:50:43;2.87;;;1.40;;
19812;SDS011;10066;48.108;11.448;2024-03-25T04:53:09;2.63;;;1.43;;
19812;SDS011;10066;48.108;11.448;2024-03-25T04:55:35;4.37;;;1.60;;
19812;SDS011;10066;48.108;11.448;2024-03-25T04:58:01;3.10;;;1.40;;
19812;SDS011;10066;48.108;11.448;2024-03-25T05:00:29;2.80;;;1.60;;
19812;SDS011;10066;48.108;11.448;2024-03-25T05:05:21;4.50;;;1.60;;
19812;SDS011;10066;48.108;11.448;2024-03-25T05:07:47;3.47;;;1.80;;
19812;SDS011;10066;48.108;11.448;2024-03-25T05:10:13;2.27;;;1.77;;
19812;SDS011;10066;48.108;11.448;2024-03-25T05:12:40;4.67;;;1.50;;
19812;SDS011;10066;48.108;11.448;2024-03-25T05:15:06;5.37;;;1.90;;
19812;SDS011;10066;48.108;11.448;2024-03-25T05:17:34;2.93;;;1.60;;
19812;SDS011;10066;48.108;11.448;2024-03-25T05:20:00;8.37;;;2.27;;
19812;SDS011;10066;48.108;11.448;2024-03-25T05:22:26;3.47;;;1.93;;
19812;SDS011;10066;48.108;11.448;2024-03-25T05:24:53;2.97;;;1.50;;
19812;SDS011;10066;48.108;11.448;2024-03-25T05:27:19;3.13;;;1.63;;
19812;SDS011;10066;48.108;11.448;2024-03-25T05:29:45;3.60;;;2.10;;
19812;SDS011;10066;48.108;11.448;2024-03-25T05:32:11;4.57;;;2.20;;
19812;SDS011;10066;48.108;11.448;2024-03-25T05:34:39;4.20;;;1.77;;
19812;SDS011;10066;48.108;11.448;2024-03-25T05:37:06;4.77;;;1.80;;
19812;SDS011;10066;48.108;11.448;2024-03-25T05:39:32;3.17;;;1.83;;
19812;SDS011;10066;48.108;11.448;2024-03-25T05:41:58;6.03;;;2.30;;
19812;SDS011;10066;48.108;11.448;2024-03-25T05:44:24;2.93;;;1.70;;
19812;SDS011;10066;48.108;11.448;2024-03-25T05:46:50;4.70;;;2.30;;
19812;SDS011;10066;48.108;11.448;2024-03-25T05:49:16;3.60;;;2.10;;
19812;SDS011;10066;48.108;11.448;2024-03-25T05:51:44;5.20;;;2.10;;
19812;SDS011;10066;48.108;11.448;2024-03-25T05:54:10;5.07;;;2.10;;
19812;SDS011;10066;48.108;11.448;2024-03-25T05:56:37;4.03;;;1.93;;
19812;SDS011;10066;48.108;11.448;2024-03-25T05:59:03;4.00;;;1.90;;
19812;SDS011;10066;48.108;11.448;2024-03-25T06:01:29;4.40;;;2.20;;
19812;SDS011;10066;48.108;11.448;2024-03-25T06:03:55;3.80;;;1.77;;
19812;SDS011;10066;48.108;11.448;2024-03-25T06:06:21;4.00;;;1.80;;
19812;SDS011;10066;48.108;11.448;2024-03-25T06:08:49;3.10;;;2.20;;
19812;SDS011;10066;48.108;11.448;2024-03-25T06:11:15;4.30;;;1.90;;
19812;SDS011;10066;48.108;11.448;2024-03-25T06:13:42;3.33;;;1.67;;
19812;SDS011;10066;48.108;11.448;2024-03-25T06:16:10;6.43;;;1.70;;
19812;SDS011;10066;48.108;11.448;2024-03-25T06:18:36;4.13;;;1.53;;
19812;SDS011;10066;48.108;11.448;2024-03-25T06:21:03;4.73;;;1.63;;
19812;SDS011;10066;48.108;11.448;2024-03-25T06:23:29;4.00;;;1.63;;
19812;SDS011;10066;48.108;11.448;2024-03-25T06:25:57;2.93;;;1.83;;
19812;SDS011;10066;48.108;11.448;2024-03-25T06:28:23;5.20;;;1.70;;
19812;SDS011;10066;48.108;11.448;2024-03-25T06:30:51;4.53;;;1.80;;
19812;SDS011;10066;48.108;11.448;2024-03-25T06:33:36;4.87;;;1.93;;
19812;SDS011;10066;48.108;11.448;2024-03-25T06:36:20;7.67;;;3.40;;
19812;SDS011;10066;48.108;11.448;2024-03-25T06:38:47;5.07;;;1.77;;
19812;SDS011;10066;48.108;11.448;2024-03-25T06:41:15;3.17;;;1.70;;
19812;SDS011;10066;48.108;11.448;2024-03-25T06:43:41;5.67;;;1.80;;
19812;SDS011;10066;48.108;11.448;2024-03-25T06:46:08;4.03;;;1.57;;
19812;SDS011;10066;48.108;11.448;2024-03-25T06:48:34;3.77;;;1.77;;
19812;SDS011;10066;48.108;11.448;2024-03-25T06:51:01;4.30;;;1.77;;
19812;SDS011;10066;48.108;11.448;2024-03-25T06:53:28;4.17;;;1.70;;
19812;SDS011;10066;48.108;11.448;2024-03-25T06:55:55;4.00;;;1.53;;
19812;SDS011;10066;48.108;11.448;2024-03-25T06:58:23;3.97;;;2.13;;
19812;SDS011;10066;48.108;11.448;2024-03-25T07:00:50;3.70;;;1.57;;
19812;SDS011;10066;48.108;11.448;2024-03-25T07:03:17;3.60;;;1.60;;
19812;SDS011;10066;48.108;11.448;2024-03-25T07:05:44;4.93;;;2.00;;
19812;SDS011;10066;48.108;11.448;2024-03-25T07:08:11;4.43;;;1.50;;
19812;SDS011;10066;48.108;11.448;2024-03-25T07:10:37;4.03;;;1.63;;
19812;SDS011;10066;48.108;11.448;2024-03-25T07:13:03;2.43;;;1.53;;
19812;SDS011;10066;48.108;11.448;2024-03-25T07:15:31;3.20;;;1.40;;
19812;SDS011;10066;48.108;11.448;2024-03-25T07:17:58;4.67;;;1.97;;
19812;SDS011;10066;48.108;11.448;2024-03-25T07:20:24;4.13;;;1.70;;
19812;SDS011;10066;48.108;11.448;2024-03-25T07:22:50;5.50;;;1.80;;
19812;SDS011;10066;48.108;11.448;2024-03-25T07:25:16;4.40;;;1.40;;
19812;SDS011;10066;48.108;11.448;2024-03-25T07:27:43;3.30;;;1.80;;
19812;SDS011;10066;48.108;11.448;2024-03-25T07:30:09;5.20;;;1.77;;
19812;SDS011;10066;48.108;11.448;2024-03-25T07:32:37;4.20;;;1.70;;
19812;SDS011;10066;48.108;11.448;2024-03-25T08:11:36;7.60;;;2.00;;
19812;SDS011;10066;48.108;11.448;2024-03-25T08:14:02;4.73;;;1.80;;
19812;SDS011;10066;48.108;11.448;2024-03-25T08:16:28;5.13;;;2.00;;
19812;SDS011;10066;48.108;11.448;2024-03-25T08:18:54;6.87;;;1.93;;
19812;SDS011;10066;48.108;11.448;2024-03-25T08:21:21;3.57;;;1.80;;
19812;SDS011;10066;48.108;11.448;2024-03-25T08:23:50;6.87;;;1.80;;
19812;SDS011;10066;48.108;11.448;2024-03-25T08:26:16;3.33;;;1.70;;
19812;SDS011;10066;48.108;11.448;2024-03-25T08:28:42;3.93;;;1.70;;
19812;SDS011;10066;48.108;11.448;2024-03-25T08:31:09;5.27;;;1.80;;
19812;SDS011;10066;48.108;11.448;2024-03-25T08:33:35;7.53;;;1.60;;
19812;SDS011;10066;48.108;11.448;2024-03-25T08:36:01;4.43;;;2.53;;
19812;SDS011;10066;48.108;11.448;2024-03-25T08:38:28;3.87;;;2.00;;
19812;SDS011;10066;48.108;11.448;2024-03-25T08:40:56;3.17;;;1.70;;
19812;SDS011;10066;48.108;11.448;2024-03-25T08:43:22;5.90;;;2.60;;
19812;SDS011;10066;48.108;11.448;2024-03-25T08:45:48;8.07;;;1.90;;
19812;SDS011;10066;48.108;11.448;2024-03-25T08:48:14;7.93;;;2.23;;
19812;SDS011;10066;48.108;11.448;2024-03-25T08:50:41;4.40;;;2.20;;
19812;SDS011;10066;48.108;11.448;2024-03-25T08:53:08;3.30;;;2.07;;
19812;SDS011;10066;48.108;11.448;2024-03-25T08:55:34;7.47;;;2.23;;
19812;SDS011;10066;48.108;11.448;2024-03-25T08:58:02;4.50;;;2.00;;
19812;SDS011;10066;48.108;11.448;2024-03-25T09:00:28;4.33;;;1.60;;
19812;SDS011;10066;48.108;11.448;2024-03-25T09:02:55;5.37;;;1.83;;
19812;SDS011;10066;48.108;11.448;2024-03-25T09:05:21;3.43;;;1.67;;
19812;SDS011;10066;48.108;11.448;2024-03-25T09:07:49;3.83;;;1.97;;
19812;SDS011;10066;48.108;11.448;2024-03-25T09:10:15;6.97;;;2.23;;
19812;SDS011;10066;48.108;11.448;2024-03-25T09:13:02;2.90;;;1.80;;
19812;SDS011;10066;48.108;11.448;2024-03-25T09:15:29;3.17;;;1.60;;
19812;SDS011;10066;48.108;11.448;2024-03-25T09:17:55;2.03;;;1.30;;
19812;SDS011;10066;48.108;11.448;2024-03-25T09:20:21;4.27;;;1.90;;
19812;SDS011;10066;48.108;11.448;2024-03-25T09:22:48;3.03;;;1.87;;
19812;SDS011;10066;48.108;11.448;2024-03-25T09:25:14;3.57;;;1.60;;
19812;SDS011;10066;48.108;11.448;2024-03-25T09:27:41;7.07;;;1.50;;
19812;SDS011;10066;48.108;11.448;2024-03-25T09:30:13;4.90;;;1.83;;
19812;SDS011;10066;48.108;11.448;2024-03-25T09:32:39;4.67;;;1.70;;
19812;SDS011;10066;48.108;11.448;2024-03-25T09:35:05;4.70;;;1.70;;
19812;SDS011;10066;48.108;11.448;2024-03-25T09:37:32;3.97;;;1.80;;
19812;SDS011;10066;48.108;11.448;2024-03-25T09:39:58;4.37;;;1.37;;
19812;SDS011;10066;48.108;11.448;2024-03-25T09:42:25;2.33;;;1.17;;
19812;SDS011;10066;48.108;11.448;2024-03-25T09:44:53;4.77;;;1.47;;
19812;SDS011;10066;48.108;11.448;2024-03-25T09:47:22;2.03;;;1.17;;
19812;SDS011;10066;48.108;11.448;2024-03-25T09:49:48;4.50;;;1.30;;
19812;SDS011;10066;48.108;11.448;2024-03-25T09:52:15;4.87;;;1.60;;
19812;SDS011;10066;48.108;11.448;2024-03-25T09:54:41;5.03;;;1.27;;
19812;SDS011;10066;48.108;11.448;2024-03-25T09:57:08;2.63;;;0.90;;
19812;SDS011;10066;48.108;11.448;2024-03-25T09:59:34;3.87;;;1.63;;
19812;SDS011;10066;48.108;11.448;2024-03-25T10:02:00;7.73;;;1.37;;
19812;SDS011;10066;48.108;11.448;2024-03-25T10:04:29;4.13;;;1.20;;
19812;SDS011;10066;48.108;11.448;2024-03-25T10:06:55;2.47;;;1.20;;
19812;SDS011;10066;48.108;11.448;2024-03-25T10:09:22;4.37;;;1.50;;
19812;SDS011;10066;48.108;11.448;2024-03-25T10:11:48;3.57;;;1.17;;
19812;SDS011;10066;48.108;11.448;2024-03-25T10:14:15;5.60;;;1.50;;
19812;SDS011;10066;48.108;11.448;2024-03-25T10:16:41;2.67;;;0.97;;
19812;SDS011;10066;48.108;11.448;2024-03-25T10:19:07;2.40;;;1.00;;
19812;SDS011;10066;48.108;11.448;2024-03-25T10:21:35;4.37;;;1.10;;
19812;SDS011;10066;48.108;11.448;2024-03-25T10:24:04;3.57;;;1.37;;
19812;SDS011;10066;48.108;11.448;2024-03-25T10:26:31;2.97;;;1.30;;
19812;SDS011;10066;48.108;11.448;2024-03-25T10:28:58;2.57;;;0.80;;
19812;SDS011;10066;48.108;11.448;2024-03-25T10:31:25;1.57;;;0.80;;
19812;SDS011;10066;48.108;11.448;2024-03-25T10:33:53;3.43;;;0.90;;
19812;SDS011;10066;48.108;11.448;2024-03-25T10:36:22;1.97;;;0.77;;
19812;SDS011;10066;48.108;11.448;2024-03-25T10:38:52;2.00;;;1.33;;
19812;SDS011;10066;48.108;11.448;2024-03-25T10:41:21;1.57;;;0.90;;
19812;SDS011;10066;48.108;11.448;2024-03-25T10:43:49;3.60;;;1.00;;
19812;SDS011;10066;48.108;11.448;2024-03-25T10:46:17;5.83;;;1.40;;
19812;SDS011;10066;48.108;11.448;2024-03-25T10:48:48;1.50;;;1.00;;
19812;SDS011;10066;48.108;11.448;2024-03-25T10:53:47;3.97;;;1.00;;
19812;SDS011;10066;48.108;11.448;2024-03-25T10:56:18;4.77;;;1.20;;
19812;SDS011;10066;48.108;11.448;2024-03-25T10:58:47;4.53;;;1.20;;
19812;SDS011;10066;48.108;11.448;2024-03-25T11:01:14;2.53;;;0.97;;
19812;SDS011;10066;48.108;11.448;2024-03-25T11:03:42;3.33;;;1.20;;
19812;SDS011;10066;48.108;11.448;2024-03-25T11:06:10;1.73;;;1.03;;
19812;SDS011;10066;48.108;11.448;2024-03-25T11:08:37;2.03;;;1.10;;
19812;SDS011;10066;48.108;11.448;2024-03-25T11:11:05;2.27;;;0.90;;
19812;SDS011;10066;48.108;11.448;2024-03-25T11:13:31;2.30;;;1.00;;
19812;SDS011;10066;48.108;11.448;2024-03-25T11:15:58;2.13;;;1.00;;
19812;SDS011;10066;48.108;11.448;2024-03-25T11:18:25;1.97;;;0.90;;
19812;SDS011;10066;48.108;11.448;2024-03-25T11:21:01;3.40;;;1.00;;
19812;SDS011;10066;48.108;11.448;2024-03-25T11:23:34;2.67;;;1.00;;
19812;SDS011;10066;48.108;11.448;2024-03-25T11:26:01;2.53;;;1.10;;
19812;SDS011;10066;48.108;11.448;2024-03-25T11:28:31;1.60;;;0.90;;
19812;SDS011;10066;48.108;11.448;2024-03-25T11:30:58;2.17;;;0.83;;
19812;SDS011;10066;48.108;11.448;2024-03-25T11:33:24;1.57;;;0.97;;
19812;SDS011;10066;48.108;11.448;2024-03-25T11:35:50;3.33;;;1.20;;
19812;SDS011;10066;48.108;11.448;2024-03-25T11:38:16;2.20;;;1.10;;
19812;SDS011;10066;48.108;11.448;2024-03-25T11:40:43;2.90;;;1.10;;
19812;SDS011;10066;48.108;11.448;2024-03-25T11:43:17;2.47;;;1.03;;
19812;SDS011;10066;48.108;11.448;2024-03-25T11:45:47;1.70;;;0.80;;
19812;SDS011;10066;48.108;11.448;2024-03-25T11:48:14;1.33;;;0.93;;
19812;SDS011;10066;48.108;11.448;2024-03-25T11:50:41;3.20;;;1.30;;
19812;SDS011;10066;48.108;11.448;2024-03-25T11:53:10;1.13;;;0.73;;
19812;SDS011;10066;48.108;11.448;2024-03-25T11:55:36;1.60;;;0.90;;
19812;SDS011;10066;48.108;11.448;2024-03-25T11:58:02;1.83;;;0.90;;
19812;SDS011;10066;48.108;11.448;2024-03-25T12:00:29;1.43;;;0.80;;
19812;SDS011;10066;48.108;11.448;2024-03-25T12:02:57;2.93;;;1.03;;
19812;SDS011;10066;48.108;11.448;2024-03-25T12:05:23;1.33;;;0.73;;
19812;SDS011;10066;48.108;11.448;2024-03-25T12:07:49;1.00;;;0.70;;
19812;SDS011;10066;48.108;11.448;2024-03-25T12:10:15;2.30;;;0.80;;
19812;SDS011;10066;48.108;11.448;2024-03-25T12:13:00;2.03;;;0.80;;
19812;SDS011;10066;48.108;11.448;2024-03-25T12:15:26;3.23;;;1.00;;
19812;SDS011;10066;48.108;11.448;2024-03-25T12:17:52;2.70;;;1.20;;
19812;SDS011;10066;48.108;11.448;2024-03-25T12:20:20;1.13;;;0.73;;
19812;SDS011;10066;48.108;11.448;2024-03-25T12:22:48;2.63;;;1.10;;
19812;SDS011;10066;48.108;11.448;2024-03-25T12:25:14;3.20;;;1.00;;
19812;SDS011;10066;48.108;11.448;2024-03-25T12:27:40;1.77;;;0.80;;
19812;SDS011;10066;48.108;11.448;2024-03-25T12:30:11;2.00;;;0.70;;
19812;SDS011;10066;48.108;11.448;2024-03-25T12:32:38;1.97;;;0.87;;
19812;SDS011;10066;48.108;11.448;2024-03-25T12:35:08;2.07;;;0.80;;
19812;SDS011;10066;48.108;11.448;2024-03-25T12:37:36;3.10;;;0.70;;
19812;SDS011;10066;48.108;11.448;2024-03-25T12:40:03;1.80;;;0.70;;
19812;SDS011;10066;48.108;11.448;2024-03-25T12:42:30;2.03;;;0.70;;
19812;SDS011;10066;48.108;11.448;2024-03-25T12:44:57;1.63;;;1.00;;
19812;SDS011;10066;48.108;11.448;2024-03-25T12:47:24;1.73;;;0.80;;
19812;SDS011;10066;48.108;11.448;2024-03-25T12:49:50;2.23;;;0.80;;
19812;SDS011;10066;48.108;11.448;2024-03-25T12:52:16;2.43;;;0.80;;
19812;SDS011;10066;48.108;11.448;2024-03-25T12:54:44;0.67;;;0.50;;
19812;SDS011;10066;48.108;11.448;2024-03-25T12:57:11;1.53;;;0.80;;
19812;SDS011;10066;48.108;11.448;2024-03-25T12:59:37;2.83;;;0.87;;
19812;SDS011;10066;48.108;11.448;2024-03-25T13:02:03;2.50;;;0.60;;
19812;SDS011;10066;48.108;11.448;2024-03-25T13:04:30;1.60;;;0.70;;
19812;SDS011;10066;48.108;11.448;2024-03-25T13:06:56;1.33;;;0.60;;
19812;SDS011;10066;48.108;11.448;2024-03-25T13:09:22;2.30;;;0.73;;
19812;SDS011;10066;48.108;11.448;2024-03-25T13:11:50;1.47;;;0.63;;
19812;SDS011;10066;48.108;11.448;2024-03-25T13:14:16;1.40;;;0.63;;
19812;SDS011;10066;48.108;11.448;2024-03-25T13:16:43;1.37;;;0.80;;
19812;SDS011;10066;48.108;11.448;2024-03-25T13:19:09;0.97;;;0.60;;
19812;SDS011;10066;48.108;11.448;2024-03-25T13:21:35;2.97;;;0.60;;
19812;SDS011;10066;48.108;11.448;2024-03-25T13:24:02;1.83;;;0.80;;
19812;SDS011;10066;48.108;11.448;2024-03-25T13:26:28;1.83;;;0.70;;
19812;SDS011;10066;48.108;11.448;2024-03-25T13:28:56;1.97;;;0.90;;
19812;SDS011;10066;48.108;11.448;2024-03-25T13:31:22;1.50;;;0.60;;
19812;SDS011;10066;48.108;11.448;2024-03-25T13:33:48;1.67;;;0.83;;
19812;SDS011;10066;48.108;11.448;2024-03-25T13:36:14;2.13;;;0.90;;
19812;SDS011;10066;48.108;11.448;2024-03-25T13:38:41;0.83;;;0.63;;
19812;SDS011;10066;48.108;11.448;2024-03-25T13:41:07;1.30;;;0.77;;
19812;SDS011;10066;48.108;11.448;2024-03-25T13:43:33;1.77;;;0.60;;
19812;SDS011;10066;48.108;11.448;2024-03-25T13:46:02;1.73;;;0.53;;
19812;SDS011;10066;48.108;11.448;2024-03-25T13:48:28;1.27;;;0.70;;
19812;SDS011;10066;48.108;11.448;2024-03-25T13:50:55;3.23;;;1.00;;
19812;SDS011;10066;48.108;11.448;2024-03-25T13:53:21;1.83;;;0.97;;
19812;SDS011;10066;48.108;11.448;2024-03-25T13:55:47;4.43;;;1.20;;
19812;SDS011;10066;48.108;11.448;2024-03-25T13:58:14;1.63;;;0.90;;
19812;SDS011;10066;48.108;11.448;2024-03-25T14:00:40;2.07;;;1.10;;
19812;SDS011;10066;48.108;11.448;2024-03-25T14:03:07;1.87;;;0.80;;
19812;SDS011;10066;48.108;11.448;2024-03-25T14:05:33;2.10;;;1.03;;
19812;SDS011;10066;48.108;11.448;2024-03-25T14:08:00;2.17;;;1.10;;
19812;SDS011;10066;48.108;11.448;2024-03-25T14:10:26;2.67;;;0.90;;
19812;SDS011;10066;48.108;11.448;2024-03-25T14:12:52;2.07;;;1.10;;
19812;SDS011;10066;48.108;11.448;2024-03-25T14:15:18;1.00;;;0.70;;
19812;SDS011;10066;48.108;11.448;2024-03-25T14:17:44;4.57;;;1.47;;
19812;SDS011;10066;48.108;11.448;2024-03-25T14:20:12;4.20;;;1.53;;
19812;SDS011;10066;48.108;11.448;2024-03-25T14:22:38;1.73;;;1.10;;
19812;SDS011;10066;48.108;11.448;2024-03-25T14:25:05;3.80;;;1.53;;
19812;SDS011;10066;48.108;11.448;2024-03-25T14:27:32;2.20;;;1.20;;
19812;SDS011;10066;48.108;11.448;2024-03-25T14:29:58;2.53;;;1.10;;
19812;SDS011;10066;48.108;11.448;2024-03-25T14:32:24;3.67;;;1.17;;
19812;SDS011;10066;48.108;11.448;2024-03-25T14:34:51;1.57;;;1.20;;
19812;SDS011;10066;48.108;11.448;2024-03-25T14:37:19;4.50;;;1.47;;
19812;SDS011;10066;48.108;11.448;2024-03-25T14:39:45;2.43;;;1.10;;
19812;SDS011;10066;48.108;11.448;2024-03-25T14:42:11;3.00;;;1.23;;
19812;SDS011;10066;48.108;11.448;2024-03-25T14:44:37;1.90;;;1.17;;
19812;SDS011;10066;48.108;11.448;2024-03-25T14:47:04;3.83;;;1.43;;
19812;SDS011;10066;48.108;11.448;2024-03-25T14:49:30;3.63;;;1.00;;
19812;SDS011;10066;48.108;11.448;2024-03-25T14:51:56;2.20;;;1.00;;
19812;SDS011;10066;48.108;11.448;2024-03-25T14:54:24;3.23;;;0.90;;
19812;SDS011;10066;48.108;11.448;2024-03-25T14:56:59;1.97;;;0.60;;
19812;SDS011;10066;48.108;11.448;2024-03-25T14:59:25;2.43;;;0.90;;
19812;SDS011;10066;48.108;11.448;2024-03-25T15:01:52;2.03;;;0.83;;
19812;SDS011;10066;48.108;11.448;2024-03-25T15:04:18;3.23;;;0.90;;
19812;SDS011;10066;48.108;11.448;2024-03-25T15:06:44;2.47;;;0.80;;
19812;SDS011;10066;48.108;11.448;2024-03-25T15:09:10;2.77;;;0.80;;
19812;SDS011;10066;48.108;11.448;2024-03-25T15:11:38;1.43;;;0.90;;
19812;SDS011;10066;48.108;11.448;2024-03-25T15:14:04;3.50;;;0.80;;
19812;SDS011;10066;48.108;11.448;2024-03-25T15:16:30;2.50;;;0.90;;
19812;SDS011;10066;48.108;11.448;2024-03-25T15:18:57;2.37;;;1.10;;
19812;SDS011;10066;48.108;11.448;2024-03-25T15:21:23;2.40;;;0.90;;
19812;SDS011;10066;48.108;11.448;2024-03-25T15:23:49;4.73;;;1.00;;
19812;SDS011;10066;48.108;11.448;2024-03-25T15:26:15;2.73;;;1.00;;
19812;SDS011;10066;48.108;11.448;2024-03-25T15:28:43;3.40;;;0.90;;
19812;SDS011;10066;48.108;11.448;2024-03-25T15:31:09;1.80;;;0.77;;
19812;SDS011;10066;48.108;11.448;2024-03-25T15:33:35;1.83;;;0.80;;
19812;SDS011;10066;48.108;11.448;2024-03-25T15:36:02;1.63;;;0.80;;
19812;SDS011;10066;48.108;11.448;2024-03-25T15:38:28;2.37;;;0.77;;
19812;SDS011;10066;48.108;11.448;2024-03-25T15:40:54;2.30;;;0.80;;
19812;SDS011;10066;48.108;11.448;2024-03-25T15:43:20;3.13;;;1.00;;
19812;SDS011;10066;48.108;11.448;2024-03-25T15:45:54;3.80;;;0.90;;
19812;SDS011;10066;48.108;11.448;2024-03-25T15:48:21;1.87;;;0.87;;
19812;SDS011;10066;48.108;11.448;2024-03-25T15:50:47;1.10;;;0.70;;
19812;SDS011;10066;48.108;11.448;2024-03-25T15:53:13;3.03;;;0.90;;
19812;SDS011;10066;48.108;11.448;2024-03-25T15:58:06;1.77;;;0.70;;
19812;SDS011;10066;48.108;11.448;2024-03-25T16:00:33;2.17;;;0.90;;
19812;SDS011;10066;48.108;11.448;2024-03-25T16:03:00;1.85;;;0.80;;
19812;SDS011;10066;48.108;11.448;2024-03-25T16:05:27;1.73;;;0.70;;
19812;SDS011;10066;48.108;11.448;2024-03-25T16:07:53;3.33;;;0.90;;
19812;SDS011;10066;48.108;11.448;2024-03-25T16:10:21;2.80;;;0.70;;
19812;SDS011;10066;48.108;11.448;2024-03-25T16:12:48;1.80;;;0.83;;
19812;SDS011;10066;48.108;11.448;2024-03-25T16:15:15;1.40;;;0.63;;
19812;SDS011;10066;48.108;11.448;2024-03-25T16:17:41;2.93;;;0.70;;
19812;SDS011;10066;48.108;11.448;2024-03-25T16:20:10;2.23;;;0.80;;
19812;SDS011;10066;48.108;11.448;2024-03-25T16:22:37;1.60;;;0.70;;
19812;SDS011;10066;48.108;11.448;2024-03-25T16:25:03;1.50;;;0.50;;
19812;SDS011;10066;48.108;11.448;2024-03-25T16:27:30;2.33;;;0.77;;
19812;SDS011;10066;48.108;11.448;2024-03-25T16:29:56;1.00;;;0.60;;
19812;SDS011;10066;48.108;11.448;2024-03-25T16:32:23;1.80;;;0.70;;
19812;SDS011;10066;48.108;11.448;2024-03-25T16:34:49;2.37;;;0.57;;
19812;SDS011;10066;48.108;11.448;2024-03-25T16:37:17;3.07;;;0.80;;
19812;SDS011;10066;48.108;11.448;2024-03-25T16:39:43;1.10;;;0.70;;
19812;SDS011;10066;48.108;11.448;2024-03-25T16:42:09;1.57;;;0.60;;
19812;SDS011;10066;48.108;11.448;2024-03-25T16:44:35;1.37;;;0.70;;
19812;SDS011;10066;48.108;11.448;2024-03-25T16:47:02;1.23;;;0.60;;
19812;SDS011;10066;48.108;11.448;2024-03-25T16:49:28;1.20;;;0.67;;
19812;SDS011;10066;48.108;11.448;2024-03-25T16:51:54;1.07;;;0.70;;
19812;SDS011;10066;48.108;11.448;2024-03-25T16:54:22;2.13;;;0.70;;
19812;SDS011;10066;48.108;11.448;2024-03-25T16:56:48;2.03;;;0.90;;
19812;SDS011;10066;48.108;11.448;2024-03-25T16:59:15;1.73;;;0.60;;
19812;SDS011;10066;48.108;11.448;2024-03-25T17:01:41;1.33;;;0.53;;
19812;SDS011;10066;48.108;11.448;2024-03-25T17:04:07;1.30;;;0.70;;
19812;SDS011;10066;48.108;11.448;2024-03-25T17:06:33;2.03;;;0.73;;
19812;SDS011;10066;48.108;11.448;2024-03-25T17:08:59;1.33;;;0.63;;
19812;SDS011;10066;48.108;11.448;2024-03-25T17:11:28;2.13;;;0.73;;
19812;SDS011;10066;48.108;11.448;2024-03-25T17:13:54;3.70;;;0.70;;
19812;SDS011;10066;48.108;11.448;2024-03-25T17:16:20;1.77;;;0.77;;
19812;SDS011;10066;48.108;11.448;2024-03-25T17:18:46;2.70;;;0.90;;
19812;SDS011;10066;48.108;11.448;2024-03-25T17:21:14;0.95;;;0.60;;
19812;SDS011;10066;48.108;11.448;2024-03-25T17:26:06;3.07;;;0.87;;
19812;SDS011;10066;48.108;11.448;2024-03-25T17:28:35;1.55;;;0.75;;
19812;SDS011;10066;48.108;11.448;2024-03-25T17:31:02;3.70;;;1.00;;
19812;SDS011;10066;48.108;11.448;2024-03-25T17:33:28;0.87;;;0.70;;
19812;SDS011;10066;48.108;11.448;2024-03-25T17:35:54;2.83;;;1.00;;
19812;SDS011;10066;48.108;11.448;2024-03-25T17:38:21;1.73;;;0.80;;
19812;SDS011;10066;48.108;11.448;2024-03-25T17:40:47;1.67;;;0.80;;
19812;SDS011;10066;48.108;11.448;2024-03-25T17:43:13;2.77;;;1.00;;
19812;SDS011;10066;48.108;11.448;2024-03-25T17:45:41;4.33;;;1.00;;
19812;SDS011;10066;48.108;11.448;2024-03-25T17:48:09;0.90;;;0.70;;
19812;SDS011;10066;48.108;11.448;2024-03-25T17:50:36;2.73;;;1.20;;
19812;SDS011;10066;48.108;11.448;2024-03-25T17:53:02;2.40;;;0.90;;
19812;SDS011;10066;48.108;11.448;2024-03-25T17:55:28;2.63;;;1.30;;
19812;SDS011;10066;48.108;11.448;2024-03-25T17:57:54;3.00;;;0.87;;
19812;SDS011;10066;48.108;11.448;2024-03-25T18:00:21;1.67;;;0.97;;
19812;SDS011;10066;48.108;11.448;2024-03-25T18:02:49;1.93;;;0.90;;
19812;SDS011;10066;48.108;11.448;2024-03-25T18:05:15;2.97;;;1.17;;
19812;SDS011;10066;48.108;11.448;2024-03-25T18:07:41;1.87;;;0.80;;
19812;SDS011;10066;48.108;11.448;2024-03-25T18:10:07;2.30;;;1.00;;
19812;SDS011;10066;48.108;11.448;2024-03-25T18:12:33;2.87;;;1.20;;
19812;SDS011;10066;48.108;11.448;2024-03-25T18:15:00;1.93;;;1.10;;
19812;SDS011;10066;48.108;11.448;2024-03-25T18:17:26;2.03;;;0.83;;
19812;SDS011;10066;48.108;11.448;2024-03-25T18:19:54;2.77;;;1.10;;
19812;SDS011;10066;48.108;11.448;2024-03-25T18:22:20;1.80;;;1.00;;
19812;SDS011;10066;48.108;11.448;2024-03-25T18:24:46;3.60;;;1.00;;
19812;SDS011;10066;48.108;11.448;2024-03-25T18:27:12;2.77;;;1.17;;
19812;SDS011;10066;48.108;11.448;2024-03-25T18:29:39;3.93;;;1.20;;
19812;SDS011;10066;48.108;11.448;2024-03-25T18:32:05;3.57;;;1.30;;
19812;SDS011;10066;48.108;11.448;2024-03-25T18:34:31;9.20;;;1.60;;
19812;SDS011;10066;48.108;11.448;2024-03-25T18:36:59;4.90;;;1.43;;
19812;SDS011;10066;48.108;11.448;2024-03-25T18:39:26;2.97;;;1.60;;
19812;SDS011;10066;48.108;11.448;2024-03-25T18:41:52;4.40;;;1.23;;
19812;SDS011;10066;48.108;11.448;2024-03-25T18:46:44;3.20;;;1.40;;
19812;SDS011;10066;48.108;11.448;2024-03-25T18:49:11;2.27;;;1.40;;
19812;SDS011;10066;48.108;11.448;2024-03-25T19:25:44;3.90;;;1.80;;
19812;SDS011;10066;48.108;11.448;2024-03-25T19:28:12;4.27;;;1.77;;
19812;SDS011;10066;48.108;11.448;2024-03-25T19:30:38;3.27;;;1.97;;
19812;SDS011;10066;48.108;11.448;2024-03-25T19:33:04;3.57;;;1.60;;
19812;SDS011;10066;48.108;11.448;2024-03-25T19:35:30;3.27;;;1.53;;
19812;SDS011;10066;48.108;11.448;2024-03-25T19:37:56;3.43;;;1.60;;
19812;SDS011;10066;48.108;11.448;2024-03-25T19:42:49;3.37;;;1.50;;
19812;SDS011;10066;48.108;11.448;2024-03-25T19:45:17;4.30;;;1.37;;
19812;SDS011;10066;48.108;11.448;2024-03-25T19:47:43;4.10;;;1.63;;
19812;SDS011;10066;48.108;11.448;2024-03-25T19:50:11;4.10;;;1.90;;
19812;SDS011;10066;48.108;11.448;2024-03-25T20:36:35;4.57;;;1.77;;
19812;SDS011;10066;48.108;11.448;2024-03-25T20:39:01;2.40;;;1.70;;
19812;SDS011;10066;48.108;11.448;2024-03-25T20:41:28;5.63;;;2.20;;
19812;SDS011;10066;48.108;11.448;2024-03-25T20:43:54;5.23;;;1.90;;
19812;SDS011;10066;48.108;11.448;2024-03-25T20:46:21;3.23;;;1.63;;
19812;SDS011;10066;48.108;11.448;2024-03-25T20:48:47;5.03;;;1.70;;
19812;SDS011;10066;48.108;11.448;2024-03-25T20:51:14;2.90;;;1.70;;
19812;SDS011;10066;48.108;11.448;2024-03-25T20:53:42;2.83;;;1.80;;
19812;SDS011;10066;48.108;11.448;2024-03-25T20:56:08;5.00;;;1.60;;
19812;SDS011;10066;48.108;11.448;2024-03-25T20:58:34;3.40;;;1.90;;
19812;SDS011;10066;48.108;11.448;2024-03-25T21:01:01;4.30;;;1.80;;
19812;SDS011;10066;48.108;11.448;2024-03-25T21:03:28;4.87;;;1.90;;
19812;SDS011;10066;48.108;11.448;2024-03-25T21:05:54;3.27;;;1.97;;
19812;SDS011;10066;48.108;11.448;2024-03-25T21:08:20;3.63;;;1.67;;
19812;SDS011;10066;48.108;11.448;2024-03-25T21:10:48;5.23;;;1.90;;
19812;SDS011;10066;48.108;11.448;2024-03-25T21:13:14;2.63;;;1.70;;